sensor_id;sensor_type;location;lat;lon;timestamp;temperature;humidity
54264;DHT22;40178;53.042;6.406;2023-01-05T00:01:20;9.30;99.90
54264;DHT22;40178;53.042;6.406;2023-01-05T00:03:46;9.50;99.90
54264;DHT22;40178;53.042;6.406;2023-01-05T00:06:13;9.30;99.90
54264;DHT22;40178;53.042;6.406;2023-01-05T00:08:40;9.40;99.90
54264;DHT22;40178;53.042;6.406;2023-01-05T00:11:11;9.30;99.90
54264;DHT22;40178;53.042;6.406;2023-01-05T00:13:56;9.50;99.90
54264;DHT22;40178;53.042;6.406;2023-01-05T00:16:41;9.40;99.90
54264;DHT22;40178;53.042;6.406;2023-01-05T00:19:33;9.40;99.90
54264;DHT22;40178;53.042;6.406;2023-01-05T00:22:20;9.30;99.90
54264;DHT22;40178;53.042;6.406;2023-01-05T00:25:05;9.30;99.90
54264;DHT22;40178;53.042;6.406;2023-01-05T00:27:31;9.50;99.90
54264;DHT22;40178;53.042;6.406;2023-01-05T00:29:58;9.40;99.90
54264;DHT22;40178;53.042;6.406;2023-01-05T00:32:24;9.40;99.90
54264;DHT22;40178;53.042;6.406;2023-01-05T00:34:50;9.50;99.90
54264;DHT22;40178;53.042;6.406;2023-01-05T00:37:21;9.30;99.90
54264;DHT22;40178;53.042;6.406;2023-01-05T00:39:46;9.30;99.90
54264;DHT22;40178;53.042;6.406;2023-01-05T00:42:12;9.50;99.90
54264;DHT22;40178;53.042;6.406;2023-01-05T00:44:38;9.40;99.90
54264;DHT22;40178;53.042;6.406;2023-01-05T00:47:03;9.40;99.90
54264;DHT22;40178;53.042;6.406;2023-01-05T00:49:29;9.40;99.90
54264;DHT22;40178;53.042;6.406;2023-01-05T00:51:54;9.40;99.90
54264;DHT22;40178;53.042;6.406;2023-01-05T00:54:20;9.40;99.90
54264;DHT22;40178;53.042;6.406;2023-01-05T00:56:46;9.40;99.90
54264;DHT22;40178;53.042;6.406;2023-01-05T00:59:14;9.30;99.90
54264;DHT22;40178;53.042;6.406;2023-01-05T01:01:41;9.40;99.90
54264;DHT22;40178;53.042;6.406;2023-01-05T01:04:09;9.30;99.90
54264;DHT22;40178;53.042;6.406;2023-01-05T01:06:34;9.40;99.90
54264;DHT22;40178;53.042;6.406;2023-01-05T01:09:00;9.30;99.90
54264;DHT22;40178;53.042;6.406;2023-01-05T01:11:26;9.30;99.90
54264;DHT22;40178;53.042;6.406;2023-01-05T01:13:51;9.30;99.90
54264;DHT22;40178;53.042;6.406;2023-01-05T01:16:17;9.30;99.90
54264;DHT22;40178;53.042;6.406;2023-01-05T01:18:42;9.40;99.90
54264;DHT22;40178;53.042;6.406;2023-01-05T01:21:08;9.40;99.90
54264;DHT22;40178;53.042;6.406;2023-01-05T01:23:34;9.30;99.90
54264;DHT22;40178;53.042;6.406;2023-01-05T01:26:11;9.30;99.90
54264;DHT22;40178;53.042;6.406;2023-01-05T01:28:38;9.30;99.90
54264;DHT22;40178;53.042;6.406;2023-01-05T01:31:04;9.30;99.90
54264;DHT22;40178;53.042;6.406;2023-01-05T01:33:30;9.30;99.90
54264;DHT22;40178;53.042;6.406;2023-01-05T01:35:57;9.30;99.90
54264;DHT22;40178;53.042;6.406;2023-01-05T01:38:23;9.40;99.90
54264;DHT22;40178;53.042;6.406;2023-01-05T01:40:49;9.30;99.90
54264;DHT22;40178;53.042;6.406;2023-01-05T01:43:19;9.40;99.90
54264;DHT22;40178;53.042;6.406;2023-01-05T01:45:45;9.40;99.90
54264;DHT22;40178;53.042;6.406;2023-01-05T01:48:13;9.40;99.90
54264;DHT22;40178;53.042;6.406;2023-01-05T01:50:50;9.50;99.90
54264;DHT22;40178;53.042;6.406;2023-01-05T01:53:17;9.40;99.90
54264;DHT22;40178;53.042;6.406;2023-01-05T01:55:45;9.40;99.90
54264;DHT22;40178;53.042;6.406;2023-01-05T01:58:14;9.40;99.90
54264;DHT22;40178;53.042;6.406;2023-01-05T02:00:41;9.50;99.90
54264;DHT22;40178;53.042;6.406;2023-01-05T02:03:08;9.50;99.90
54264;DHT22;40178;53.042;6.406;2023-01-05T02:05:34;9.40;99.90
54264;DHT22;40178;53.042;6.406;2023-01-05T02:08:03;9.50;99.90
54264;DHT22;40178;53.042;6.406;2023-01-05T02:16:42;9.50;99.90
54264;DHT22;40178;53.042;6.406;2023-01-05T02:25:10;9.30;99.90
54264;DHT22;40178;53.042;6.406;2023-01-05T02:38:54;9.30;99.90
54264;DHT22;40178;53.042;6.406;2023-01-05T02:41:34;9.30;99.90
54264;DHT22;40178;53.042;6.406;2023-01-05T02:44:01;9.20;99.90
54264;DHT22;40178;53.042;6.406;2023-01-05T02:46:28;9.30;99.90
54264;DHT22;40178;53.042;6.406;2023-01-05T02:48:55;9.30;99.90
54264;DHT22;40178;53.042;6.406;2023-01-05T02:51:26;9.20;99.90
54264;DHT22;40178;53.042;6.406;2023-01-05T02:54:07;9.30;99.90
54264;DHT22;40178;53.042;6.406;2023-01-05T02:56:43;9.40;99.90
54264;DHT22;40178;53.042;6.406;2023-01-05T02:59:19;9.30;99.90
54264;DHT22;40178;53.042;6.406;2023-01-05T03:01:52;9.40;99.90
54264;DHT22;40178;53.042;6.406;2023-01-05T03:04:47;9.30;99.90
54264;DHT22;40178;53.042;6.406;2023-01-05T03:07:16;9.40;99.90
54264;DHT22;40178;53.042;6.406;2023-01-05T03:09:44;9.30;99.90
54264;DHT22;40178;53.042;6.406;2023-01-05T03:12:32;9.30;99.90
54264;DHT22;40178;53.042;6.406;2023-01-05T03:15:24;9.30;99.90
54264;DHT22;40178;53.042;6.406;2023-01-05T03:17:54;9.30;99.90
54264;DHT22;40178;53.042;6.406;2023-01-05T03:20:24;9.30;99.90
54264;DHT22;40178;53.042;6.406;2023-01-05T03:22:51;9.20;99.90
54264;DHT22;40178;53.042;6.406;2023-01-05T03:25:37;9.30;99.90
54264;DHT22;40178;53.042;6.406;2023-01-05T03:28:41;9.20;99.90
54264;DHT22;40178;53.042;6.406;2023-01-05T03:31:34;9.20;99.90
54264;DHT22;40178;53.042;6.406;2023-01-05T03:37:27;9.20;99.90
54264;DHT22;40178;53.042;6.406;2023-01-05T03:39:55;9.10;99.90
54264;DHT22;40178;53.042;6.406;2023-01-05T03:42:21;9.10;99.90
54264;DHT22;40178;53.042;6.406;2023-01-05T03:44:48;9.20;99.90
54264;DHT22;40178;53.042;6.406;2023-01-05T03:47:14;9.20;99.90
54264;DHT22;40178;53.042;6.406;2023-01-05T03:49:40;9.20;99.90
54264;DHT22;40178;53.042;6.406;2023-01-05T03:52:06;9.20;99.90
54264;DHT22;40178;53.042;6.406;2023-01-05T03:54:31;9.10;99.90
54264;DHT22;40178;53.042;6.406;2023-01-05T03:56:57;9.20;99.90
54264;DHT22;40178;53.042;6.406;2023-01-05T03:59:23;9.20;99.90
54264;DHT22;40178;53.042;6.406;2023-01-05T04:01:48;9.20;99.90
54264;DHT22;40178;53.042;6.406;2023-01-05T04:04:14;9.20;99.90
54264;DHT22;40178;53.042;6.406;2023-01-05T04:06:39;9.30;99.90
54264;DHT22;40178;53.042;6.406;2023-01-05T04:09:05;9.20;99.90
54264;DHT22;40178;53.042;6.406;2023-01-05T04:11:30;9.20;99.90
54264;DHT22;40178;53.042;6.406;2023-01-05T04:13:56;9.20;99.90
54264;DHT22;40178;53.042;6.406;2023-01-05T04:16:22;9.30;99.90
54264;DHT22;40178;53.042;6.406;2023-01-05T04:18:48;9.20;99.90
54264;DHT22;40178;53.042;6.406;2023-01-05T04:21:13;9.30;99.90
54264;DHT22;40178;53.042;6.406;2023-01-05T04:23:39;9.30;99.90
54264;DHT22;40178;53.042;6.406;2023-01-05T04:26:05;9.20;99.90
54264;DHT22;40178;53.042;6.406;2023-01-05T04:28:31;9.30;99.90
54264;DHT22;40178;53.042;6.406;2023-01-05T04:30:57;9.30;99.90
54264;DHT22;40178;53.042;6.406;2023-01-05T04:33:23;9.30;99.90
54264;DHT22;40178;53.042;6.406;2023-01-05T04:35:48;9.40;99.90
54264;DHT22;40178;53.042;6.406;2023-01-05T04:38:15;9.40;99.90
54264;DHT22;40178;53.042;6.406;2023-01-05T04:40:41;9.30;99.90
54264;DHT22;40178;53.042;6.406;2023-01-05T04:43:06;9.30;99.90
54264;DHT22;40178;53.042;6.406;2023-01-05T04:45:33;9.40;99.90
54264;DHT22;40178;53.042;6.406;2023-01-05T04:47:59;9.40;99.90
54264;DHT22;40178;53.042;6.406;2023-01-05T04:50:25;9.40;99.90
54264;DHT22;40178;53.042;6.406;2023-01-05T04:52:51;9.40;99.90
54264;DHT22;40178;53.042;6.406;2023-01-05T04:55:17;9.40;99.90
54264;DHT22;40178;53.042;6.406;2023-01-05T04:57:43;9.40;99.90
54264;DHT22;40178;53.042;6.406;2023-01-05T05:00:08;9.40;99.90
54264;DHT22;40178;53.042;6.406;2023-01-05T05:02:35;9.30;99.90
54264;DHT22;40178;53.042;6.406;2023-01-05T05:05:01;9.40;99.90
54264;DHT22;40178;53.042;6.406;2023-01-05T05:07:27;9.30;99.90
54264;DHT22;40178;53.042;6.406;2023-01-05T05:09:52;9.40;99.90
54264;DHT22;40178;53.042;6.406;2023-01-05T05:12:18;9.40;99.90
54264;DHT22;40178;53.042;6.406;2023-01-05T05:14:46;9.40;99.90
54264;DHT22;40178;53.042;6.406;2023-01-05T05:17:11;9.40;99.90
54264;DHT22;40178;53.042;6.406;2023-01-05T05:19:37;9.30;99.90
54264;DHT22;40178;53.042;6.406;2023-01-05T05:22:03;9.40;99.90
54264;DHT22;40178;53.042;6.406;2023-01-05T05:24:28;9.40;99.90
54264;DHT22;40178;53.042;6.406;2023-01-05T05:26:54;9.40;99.90
54264;DHT22;40178;53.042;6.406;2023-01-05T05:29:22;9.50;99.90
54264;DHT22;40178;53.042;6.406;2023-01-05T05:31:47;9.40;99.90
54264;DHT22;40178;53.042;6.406;2023-01-05T05:34:13;9.50;99.90
54264;DHT22;40178;53.042;6.406;2023-01-05T05:36:39;9.50;99.90
54264;DHT22;40178;53.042;6.406;2023-01-05T05:39:04;9.40;99.90
54264;DHT22;40178;53.042;6.406;2023-01-05T05:41:30;9.50;99.90
54264;DHT22;40178;53.042;6.406;2023-01-05T05:43:55;9.50;99.90
54264;DHT22;40178;53.042;6.406;2023-01-05T05:46:29;9.40;99.90
54264;DHT22;40178;53.042;6.406;2023-01-05T05:48:55;9.50;99.90
54264;DHT22;40178;53.042;6.406;2023-01-05T05:51:21;9.50;99.90
54264;DHT22;40178;53.042;6.406;2023-01-05T05:53:47;9.40;99.90
54264;DHT22;40178;53.042;6.406;2023-01-05T05:56:13;9.50;99.90
54264;DHT22;40178;53.042;6.406;2023-01-05T05:58:38;9.40;99.90
54264;DHT22;40178;53.042;6.406;2023-01-05T06:01:04;9.40;99.90
54264;DHT22;40178;53.042;6.406;2023-01-05T06:03:30;9.50;99.90
54264;DHT22;40178;53.042;6.406;2023-01-05T06:05:55;9.40;99.90
54264;DHT22;40178;53.042;6.406;2023-01-05T06:08:21;9.50;99.90
54264;DHT22;40178;53.042;6.406;2023-01-05T06:10:49;9.40;99.90
54264;DHT22;40178;53.042;6.406;2023-01-05T06:13:17;9.40;99.90
54264;DHT22;40178;53.042;6.406;2023-01-05T06:15:42;9.40;99.90
54264;DHT22;40178;53.042;6.406;2023-01-05T06:18:08;9.40;99.90
54264;DHT22;40178;53.042;6.406;2023-01-05T06:20:34;9.40;99.90
54264;DHT22;40178;53.042;6.406;2023-01-05T06:23:00;9.30;99.90
54264;DHT22;40178;53.042;6.406;2023-01-05T06:25:26;9.30;99.90
54264;DHT22;40178;53.042;6.406;2023-01-05T06:27:52;9.40;99.90
54264;DHT22;40178;53.042;6.406;2023-01-05T06:30:17;9.30;99.90
54264;DHT22;40178;53.042;6.406;2023-01-05T06:32:43;9.30;99.90
54264;DHT22;40178;53.042;6.406;2023-01-05T06:35:08;9.30;99.90
54264;DHT22;40178;53.042;6.406;2023-01-05T06:37:34;9.30;99.90
54264;DHT22;40178;53.042;6.406;2023-01-05T06:40:00;9.30;99.90
54264;DHT22;40178;53.042;6.406;2023-01-05T06:42:25;9.20;99.90
54264;DHT22;40178;53.042;6.406;2023-01-05T06:44:51;9.30;99.90
54264;DHT22;40178;53.042;6.406;2023-01-05T06:47:17;9.20;99.90
54264;DHT22;40178;53.042;6.406;2023-01-05T06:49:43;9.30;99.90
54264;DHT22;40178;53.042;6.406;2023-01-05T06:52:08;9.20;99.90
54264;DHT22;40178;53.042;6.406;2023-01-05T06:54:34;9.20;99.90
54264;DHT22;40178;53.042;6.406;2023-01-05T06:56:59;9.30;99.90
54264;DHT22;40178;53.042;6.406;2023-01-05T06:59:25;9.30;99.90
54264;DHT22;40178;53.042;6.406;2023-01-05T07:01:51;9.30;99.90
54264;DHT22;40178;53.042;6.406;2023-01-05T07:04:16;9.20;99.90
54264;DHT22;40178;53.042;6.406;2023-01-05T07:06:42;9.30;99.90
54264;DHT22;40178;53.042;6.406;2023-01-05T07:09:08;9.20;99.90
54264;DHT22;40178;53.042;6.406;2023-01-05T07:11:34;9.20;99.90
54264;DHT22;40178;53.042;6.406;2023-01-05T07:13:59;9.20;99.90
54264;DHT22;40178;53.042;6.406;2023-01-05T07:16:25;9.30;99.90
54264;DHT22;40178;53.042;6.406;2023-01-05T07:18:50;9.20;99.90
54264;DHT22;40178;53.042;6.406;2023-01-05T07:21:16;9.30;99.90
54264;DHT22;40178;53.042;6.406;2023-01-05T07:23:41;9.30;99.90
54264;DHT22;40178;53.042;6.406;2023-01-05T07:26:08;9.30;99.90
54264;DHT22;40178;53.042;6.406;2023-01-05T07:28:35;9.20;99.90
54264;DHT22;40178;53.042;6.406;2023-01-05T07:31:01;9.30;99.90
54264;DHT22;40178;53.042;6.406;2023-01-05T07:33:27;9.20;99.90
54264;DHT22;40178;53.042;6.406;2023-01-05T07:35:52;9.30;99.90
54264;DHT22;40178;53.042;6.406;2023-01-05T07:38:18;9.30;99.90
54264;DHT22;40178;53.042;6.406;2023-01-05T07:40:44;9.20;99.90
54264;DHT22;40178;53.042;6.406;2023-01-05T07:43:09;9.30;99.90
54264;DHT22;40178;53.042;6.406;2023-01-05T07:45:35;9.20;99.90
54264;DHT22;40178;53.042;6.406;2023-01-05T07:48:01;9.20;99.90
54264;DHT22;40178;53.042;6.406;2023-01-05T07:50:27;9.20;99.90
54264;DHT22;40178;53.042;6.406;2023-01-05T07:52:53;9.30;99.90
54264;DHT22;40178;53.042;6.406;2023-01-05T07:55:19;9.20;99.90
54264;DHT22;40178;53.042;6.406;2023-01-05T07:57:44;9.20;99.90
54264;DHT22;40178;53.042;6.406;2023-01-05T08:00:11;9.20;99.90
54264;DHT22;40178;53.042;6.406;2023-01-05T08:02:39;9.20;99.90
54264;DHT22;40178;53.042;6.406;2023-01-05T08:05:05;9.20;99.90
54264;DHT22;40178;53.042;6.406;2023-01-05T08:07:31;9.20;99.90
54264;DHT22;40178;53.042;6.406;2023-01-05T08:09:57;9.30;99.90
54264;DHT22;40178;53.042;6.406;2023-01-05T08:12:41;9.20;99.90
54264;DHT22;40178;53.042;6.406;2023-01-05T08:15:25;9.20;99.90
54264;DHT22;40178;53.042;6.406;2023-01-05T08:17:51;9.20;99.90
54264;DHT22;40178;53.042;6.406;2023-01-05T08:20:17;9.20;99.90
54264;DHT22;40178;53.042;6.406;2023-01-05T08:22:42;9.20;99.90
54264;DHT22;40178;53.042;6.406;2023-01-05T08:25:08;9.30;99.90
54264;DHT22;40178;53.042;6.406;2023-01-05T08:27:34;9.30;99.90
54264;DHT22;40178;53.042;6.406;2023-01-05T08:29:59;9.20;99.90
54264;DHT22;40178;53.042;6.406;2023-01-05T08:32:25;9.20;99.90
54264;DHT22;40178;53.042;6.406;2023-01-05T08:34:50;9.30;99.90
54264;DHT22;40178;53.042;6.406;2023-01-05T08:37:16;9.20;99.90
54264;DHT22;40178;53.042;6.406;2023-01-05T08:39:42;9.30;99.90
54264;DHT22;40178;53.042;6.406;2023-01-05T08:42:07;9.20;99.90
54264;DHT22;40178;53.042;6.406;2023-01-05T08:44:33;9.30;99.90
54264;DHT22;40178;53.042;6.406;2023-01-05T08:46:58;9.30;99.90
54264;DHT22;40178;53.042;6.406;2023-01-05T08:49:24;9.30;99.90
54264;DHT22;40178;53.042;6.406;2023-01-05T08:51:49;9.30;99.90
54264;DHT22;40178;53.042;6.406;2023-01-05T08:54:15;9.30;99.90
54264;DHT22;40178;53.042;6.406;2023-01-05T08:56:41;9.00;99.90
54264;DHT22;40178;53.042;6.406;2023-01-05T08:59:11;9.30;99.90
54264;DHT22;40178;53.042;6.406;2023-01-05T09:01:37;9.40;99.90
54264;DHT22;40178;53.042;6.406;2023-01-05T09:04:03;9.30;99.90
54264;DHT22;40178;53.042;6.406;2023-01-05T09:06:29;9.40;99.90
54264;DHT22;40178;53.042;6.406;2023-01-05T09:08:54;9.40;99.90
54264;DHT22;40178;53.042;6.406;2023-01-05T09:11:22;9.40;99.90
54264;DHT22;40178;53.042;6.406;2023-01-05T09:13:51;9.40;99.90
54264;DHT22;40178;53.042;6.406;2023-01-05T09:16:18;9.40;99.90
54264;DHT22;40178;53.042;6.406;2023-01-05T09:18:44;9.40;99.90
54264;DHT22;40178;53.042;6.406;2023-01-05T09:21:11;9.40;99.90
54264;DHT22;40178;53.042;6.406;2023-01-05T09:23:36;9.40;99.90
54264;DHT22;40178;53.042;6.406;2023-01-05T09:26:04;9.40;99.90
54264;DHT22;40178;53.042;6.406;2023-01-05T09:28:30;9.40;99.90
54264;DHT22;40178;53.042;6.406;2023-01-05T09:30:56;9.50;99.90
54264;DHT22;40178;53.042;6.406;2023-01-05T09:33:21;9.40;99.90
54264;DHT22;40178;53.042;6.406;2023-01-05T09:35:54;9.50;99.90
54264;DHT22;40178;53.042;6.406;2023-01-05T09:38:20;9.50;99.90
54264;DHT22;40178;53.042;6.406;2023-01-05T09:40:47;9.50;99.90
54264;DHT22;40178;53.042;6.406;2023-01-05T09:43:22;9.50;99.90
54264;DHT22;40178;53.042;6.406;2023-01-05T09:45:49;9.50;99.90
54264;DHT22;40178;53.042;6.406;2023-01-05T09:48:17;9.60;99.90
54264;DHT22;40178;53.042;6.406;2023-01-05T09:50:43;9.60;99.90
54264;DHT22;40178;53.042;6.406;2023-01-05T09:53:12;9.60;99.90
54264;DHT22;40178;53.042;6.406;2023-01-05T09:55:40;9.60;99.90
54264;DHT22;40178;53.042;6.406;2023-01-05T09:58:36;9.70;99.90
54264;DHT22;40178;53.042;6.406;2023-01-05T10:01:26;9.60;99.90
54264;DHT22;40178;53.042;6.406;2023-01-05T10:03:59;9.30;99.90
54264;DHT22;40178;53.042;6.406;2023-01-05T10:06:29;9.70;99.90
54264;DHT22;40178;53.042;6.406;2023-01-05T10:08:57;9.60;99.90
54264;DHT22;40178;53.042;6.406;2023-01-05T10:11:38;9.70;99.90
54264;DHT22;40178;53.042;6.406;2023-01-05T10:14:42;9.70;99.90
54264;DHT22;40178;53.042;6.406;2023-01-05T10:17:16;9.70;99.90
54264;DHT22;40178;53.042;6.406;2023-01-05T10:19:43;9.70;99.90
54264;DHT22;40178;53.042;6.406;2023-01-05T10:33:25;9.80;99.90
54264;DHT22;40178;53.042;6.406;2023-01-05T10:39:07;9.80;99.90
54264;DHT22;40178;53.042;6.406;2023-01-05T10:42:01;9.80;99.90
54264;DHT22;40178;53.042;6.406;2023-01-05T10:44:44;9.80;99.90
54264;DHT22;40178;53.042;6.406;2023-01-05T10:47:12;9.90;99.90
54264;DHT22;40178;53.042;6.406;2023-01-05T10:49:40;9.90;99.90
54264;DHT22;40178;53.042;6.406;2023-01-05T10:52:15;9.90;99.90
54264;DHT22;40178;53.042;6.406;2023-01-05T10:54:58;9.90;99.90
54264;DHT22;40178;53.042;6.406;2023-01-05T10:59:57;9.90;99.90
54264;DHT22;40178;53.042;6.406;2023-01-05T11:02:26;10.00;99.90
54264;DHT22;40178;53.042;6.406;2023-01-05T11:04:53;9.90;99.90
54264;DHT22;40178;53.042;6.406;2023-01-05T11:07:19;9.90;99.90
54264;DHT22;40178;53.042;6.406;2023-01-05T11:09:47;9.90;99.90
54264;DHT22;40178;53.042;6.406;2023-01-05T11:12:23;9.90;99.90
54264;DHT22;40178;53.042;6.406;2023-01-05T11:14:55;9.90;99.90
54264;DHT22;40178;53.042;6.406;2023-01-05T11:17:23;10.00;99.90
54264;DHT22;40178;53.042;6.406;2023-01-05T11:19:53;10.00;99.90
54264;DHT22;40178;53.042;6.406;2023-01-05T11:22:38;10.00;99.90
54264;DHT22;40178;53.042;6.406;2023-01-05T11:25:27;10.00;99.90
54264;DHT22;40178;53.042;6.406;2023-01-05T11:28:08;10.00;99.90
54264;DHT22;40178;53.042;6.406;2023-01-05T11:30:34;10.00;99.90
54264;DHT22;40178;53.042;6.406;2023-01-05T11:33:00;10.10;99.90
54264;DHT22;40178;53.042;6.406;2023-01-05T11:35:35;10.00;99.90
54264;DHT22;40178;53.042;6.406;2023-01-05T11:38:01;10.10;99.90
54264;DHT22;40178;53.042;6.406;2023-01-05T11:40:32;10.10;99.90
54264;DHT22;40178;53.042;6.406;2023-01-05T11:42:59;10.10;99.90
54264;DHT22;40178;53.042;6.406;2023-01-05T11:45:44;10.00;99.90
54264;DHT22;40178;53.042;6.406;2023-01-05T11:48:17;10.10;99.90
54264;DHT22;40178;53.042;6.406;2023-01-05T11:50:51;10.10;99.90
54264;DHT22;40178;53.042;6.406;2023-01-05T11:58:30;10.20;99.90
54264;DHT22;40178;53.042;6.406;2023-01-05T12:07:04;10.10;99.90
54264;DHT22;40178;53.042;6.406;2023-01-05T12:09:37;10.10;99.90
54264;DHT22;40178;53.042;6.406;2023-01-05T12:14:58;10.20;99.90
54264;DHT22;40178;53.042;6.406;2023-01-05T12:17:44;10.20;99.90
54264;DHT22;40178;53.042;6.406;2023-01-05T12:28:46;10.20;99.90
54264;DHT22;40178;53.042;6.406;2023-01-05T12:31:37;10.20;99.90
54264;DHT22;40178;53.042;6.406;2023-01-05T12:42:35;10.10;99.90
54264;DHT22;40178;53.042;6.406;2023-01-05T12:54:30;9.90;99.90
54264;DHT22;40178;53.042;6.406;2023-01-05T12:57:11;9.90;99.90
54264;DHT22;40178;53.042;6.406;2023-01-05T13:02:37;9.80;99.90
54264;DHT22;40178;53.042;6.406;2023-01-05T13:05:13;9.90;99.90
54264;DHT22;40178;53.042;6.406;2023-01-05T13:10:48;9.90;99.90
54264;DHT22;40178;53.042;6.406;2023-01-05T13:13:19;9.90;99.90
54264;DHT22;40178;53.042;6.406;2023-01-05T13:16:04;9.90;99.90
54264;DHT22;40178;53.042;6.406;2023-01-05T13:18:34;9.90;99.90
54264;DHT22;40178;53.042;6.406;2023-01-05T13:21:02;9.90;99.90
54264;DHT22;40178;53.042;6.406;2023-01-05T13:23:50;9.90;99.90
54264;DHT22;40178;53.042;6.406;2023-01-05T13:26:19;9.90;99.90
54264;DHT22;40178;53.042;6.406;2023-01-05T13:28:47;10.00;99.90
54264;DHT22;40178;53.042;6.406;2023-01-05T13:37:21;10.00;99.90
54264;DHT22;40178;53.042;6.406;2023-01-05T13:45:41;10.00;99.90
54264;DHT22;40178;53.042;6.406;2023-01-05T13:48:38;10.00;99.90
54264;DHT22;40178;53.042;6.406;2023-01-05T13:53:52;10.00;99.90
54264;DHT22;40178;53.042;6.406;2023-01-05T13:56:27;10.00;99.90
54264;DHT22;40178;53.042;6.406;2023-01-05T13:59:06;10.00;99.90
54264;DHT22;40178;53.042;6.406;2023-01-05T14:01:43;10.00;99.90
54264;DHT22;40178;53.042;6.406;2023-01-05T14:04:21;10.00;99.90
54264;DHT22;40178;53.042;6.406;2023-01-05T14:06:51;9.90;99.90
54264;DHT22;40178;53.042;6.406;2023-01-05T14:09:37;10.00;99.90
54264;DHT22;40178;53.042;6.406;2023-01-05T14:20:39;9.90;99.90
54264;DHT22;40178;53.042;6.406;2023-01-05T14:25:53;10.00;99.90
54264;DHT22;40178;53.042;6.406;2023-01-05T14:36:39;9.90;99.90
54264;DHT22;40178;53.042;6.406;2023-01-05T14:39:21;9.90;99.90
54264;DHT22;40178;53.042;6.406;2023-01-05T14:42:01;9.80;99.90
54264;DHT22;40178;53.042;6.406;2023-01-05T14:44:55;9.90;99.90
54264;DHT22;40178;53.042;6.406;2023-01-05T14:47:40;9.90;99.90
54264;DHT22;40178;53.042;6.406;2023-01-05T14:53:13;9.80;99.90
54264;DHT22;40178;53.042;6.406;2023-01-05T15:01:12;9.80;99.90
54264;DHT22;40178;53.042;6.406;2023-01-05T15:06:22;9.80;99.90
54264;DHT22;40178;53.042;6.406;2023-01-05T15:11:53;9.60;99.90
54264;DHT22;40178;53.042;6.406;2023-01-05T15:36:17;9.40;99.90
54264;DHT22;40178;53.042;6.406;2023-01-05T15:38:46;9.30;99.90
54264;DHT22;40178;53.042;6.406;2023-01-05T15:41:13;9.30;99.90
54264;DHT22;40178;53.042;6.406;2023-01-05T15:43:42;9.30;99.90
54264;DHT22;40178;53.042;6.406;2023-01-05T15:48:40;9.20;99.90
54264;DHT22;40178;53.042;6.406;2023-01-05T15:51:07;9.20;99.90
54264;DHT22;40178;53.042;6.406;2023-01-05T15:53:37;9.20;99.90
54264;DHT22;40178;53.042;6.406;2023-01-05T15:56:20;9.20;99.90
54264;DHT22;40178;53.042;6.406;2023-01-05T15:58:47;9.20;99.90
54264;DHT22;40178;53.042;6.406;2023-01-05T16:01:14;9.10;99.90
54264;DHT22;40178;53.042;6.406;2023-01-05T16:03:41;9.20;99.90
54264;DHT22;40178;53.042;6.406;2023-01-05T16:08:44;9.20;99.90
54264;DHT22;40178;53.042;6.406;2023-01-05T16:11:11;9.20;99.90
54264;DHT22;40178;53.042;6.406;2023-01-05T16:13:47;9.10;99.90
54264;DHT22;40178;53.042;6.406;2023-01-05T16:16:25;9.00;99.90
54264;DHT22;40178;53.042;6.406;2023-01-05T16:18:58;9.00;99.90
54264;DHT22;40178;53.042;6.406;2023-01-05T16:26:47;8.90;99.90
54264;DHT22;40178;53.042;6.406;2023-01-05T16:29:29;8.80;99.90
54264;DHT22;40178;53.042;6.406;2023-01-05T16:31:56;8.90;99.90
54264;DHT22;40178;53.042;6.406;2023-01-05T16:34:22;8.80;99.90
54264;DHT22;40178;53.042;6.406;2023-01-05T16:37:15;8.70;99.90
54264;DHT22;40178;53.042;6.406;2023-01-05T16:39:42;8.70;99.90
54264;DHT22;40178;53.042;6.406;2023-01-05T16:42:21;8.70;99.90
54264;DHT22;40178;53.042;6.406;2023-01-05T16:45:23;8.80;99.90
54264;DHT22;40178;53.042;6.406;2023-01-05T16:47:49;8.70;99.90
54264;DHT22;40178;53.042;6.406;2023-01-05T16:52:54;8.80;99.90
54264;DHT22;40178;53.042;6.406;2023-01-05T16:57:46;8.70;99.90
54264;DHT22;40178;53.042;6.406;2023-01-05T17:03:29;8.80;99.90
54264;DHT22;40178;53.042;6.406;2023-01-05T17:05:56;8.70;99.90
54264;DHT22;40178;53.042;6.406;2023-01-05T17:08:24;8.70;99.90
54264;DHT22;40178;53.042;6.406;2023-01-05T17:10:55;8.80;99.90
54264;DHT22;40178;53.042;6.406;2023-01-05T17:13:24;8.80;99.90
54264;DHT22;40178;53.042;6.406;2023-01-05T17:15:51;8.80;99.90
54264;DHT22;40178;53.042;6.406;2023-01-05T17:18:19;8.80;99.90
54264;DHT22;40178;53.042;6.406;2023-01-05T17:20:48;8.80;99.90
54264;DHT22;40178;53.042;6.406;2023-01-05T17:23:27;8.70;99.90
54264;DHT22;40178;53.042;6.406;2023-01-05T17:25:58;8.80;99.90
54264;DHT22;40178;53.042;6.406;2023-01-05T17:28:26;8.80;99.90
54264;DHT22;40178;53.042;6.406;2023-01-05T17:30:51;8.80;99.90
54264;DHT22;40178;53.042;6.406;2023-01-05T17:33:17;8.80;99.90
54264;DHT22;40178;53.042;6.406;2023-01-05T17:35:44;8.90;99.90
54264;DHT22;40178;53.042;6.406;2023-01-05T17:38:11;8.80;99.90
54264;DHT22;40178;53.042;6.406;2023-01-05T17:40:37;8.80;99.90
54264;DHT22;40178;53.042;6.406;2023-01-05T17:43:03;8.80;99.90
54264;DHT22;40178;53.042;6.406;2023-01-05T17:45:29;8.90;99.90
54264;DHT22;40178;53.042;6.406;2023-01-05T17:47:55;8.80;99.90
54264;DHT22;40178;53.042;6.406;2023-01-05T17:50:23;8.90;99.90
54264;DHT22;40178;53.042;6.406;2023-01-05T17:52:52;8.80;99.90
54264;DHT22;40178;53.042;6.406;2023-01-05T17:55:18;8.80;99.90
54264;DHT22;40178;53.042;6.406;2023-01-05T17:57:44;8.90;99.90
54264;DHT22;40178;53.042;6.406;2023-01-05T18:00:13;8.90;99.90
54264;DHT22;40178;53.042;6.406;2023-01-05T18:02:39;8.90;99.90
54264;DHT22;40178;53.042;6.406;2023-01-05T18:05:06;8.90;99.90
54264;DHT22;40178;53.042;6.406;2023-01-05T18:07:32;8.90;99.90
54264;DHT22;40178;53.042;6.406;2023-01-05T18:09:58;8.90;99.90
54264;DHT22;40178;53.042;6.406;2023-01-05T18:12:25;9.00;99.90
54264;DHT22;40178;53.042;6.406;2023-01-05T18:14:51;9.00;99.90
54264;DHT22;40178;53.042;6.406;2023-01-05T18:17:18;8.90;99.90
54264;DHT22;40178;53.042;6.406;2023-01-05T18:19:44;8.90;99.90
54264;DHT22;40178;53.042;6.406;2023-01-05T18:22:10;9.00;99.90
54264;DHT22;40178;53.042;6.406;2023-01-05T18:24:37;8.90;99.90
54264;DHT22;40178;53.042;6.406;2023-01-05T18:27:03;8.90;99.90
54264;DHT22;40178;53.042;6.406;2023-01-05T18:29:32;8.90;99.90
54264;DHT22;40178;53.042;6.406;2023-01-05T18:31:58;9.00;99.90
54264;DHT22;40178;53.042;6.406;2023-01-05T18:34:23;9.00;99.90
54264;DHT22;40178;53.042;6.406;2023-01-05T18:36:49;8.90;99.90
54264;DHT22;40178;53.042;6.406;2023-01-05T18:39:14;8.90;99.90
54264;DHT22;40178;53.042;6.406;2023-01-05T18:41:40;8.90;99.90
54264;DHT22;40178;53.042;6.406;2023-01-05T18:44:06;8.90;99.90
54264;DHT22;40178;53.042;6.406;2023-01-05T18:46:31;8.90;99.90
54264;DHT22;40178;53.042;6.406;2023-01-05T18:48:57;8.90;99.90
54264;DHT22;40178;53.042;6.406;2023-01-05T18:51:23;9.00;99.90
54264;DHT22;40178;53.042;6.406;2023-01-05T18:53:48;9.10;99.90
54264;DHT22;40178;53.042;6.406;2023-01-05T18:56:14;8.90;99.90
54264;DHT22;40178;53.042;6.406;2023-01-05T18:58:40;8.90;99.90